sensor_id;sensor_type;location;lat;lon;timestamp;P1;durP1;ratioP1;P2;durP2;ratioP2
44169;SDS011;29836;52.286;9.576;2023-05-10T00:01:24;3.78;;;1.83;;
44169;SDS011;29836;52.286;9.576;2023-05-10T00:03:50;2.33;;;1.50;;
44169;SDS011;29836;52.286;9.576;2023-05-10T00:06:16;3.63;;;1.83;;
44169;SDS011;29836;52.286;9.576;2023-05-10T00:08:41;3.05;;;1.77;;
44169;SDS011;29836;52.286;9.576;2023-05-10T00:11:07;3.35;;;1.60;;
44169;SDS011;29836;52.286;9.576;2023-05-10T00:13:32;6.03;;;1.80;;
44169;SDS011;29836;52.286;9.576;2023-05-10T00:15:58;2.53;;;1.50;;
44169;SDS011;29836;52.286;9.576;2023-05-10T00:18:23;5.18;;;2.05;;
44169;SDS011;29836;52.286;9.576;2023-05-10T00:20:49;2.25;;;1.38;;
44169;SDS011;29836;52.286;9.576;2023-05-10T00:23:14;7.70;;;1.88;;
44169;SDS011;29836;52.286;9.576;2023-05-10T00:25:40;4.22;;;1.67;;
44169;SDS011;29836;52.286;9.576;2023-05-10T00:28:05;3.72;;;1.70;;
44169;SDS011;29836;52.286;9.576;2023-05-10T00:30:31;4.45;;;1.85;;
44169;SDS011;29836;52.286;9.576;2023-05-10T00:32:56;8.10;;;2.00;;
44169;SDS011;29836;52.286;9.576;2023-05-10T00:35:22;3.78;;;1.73;;
44169;SDS011;29836;52.286;9.576;2023-05-10T00:37:47;2.75;;;1.80;;
44169;SDS011;29836;52.286;9.576;2023-05-10T00:40:13;4.28;;;1.73;;
44169;SDS011;29836;52.286;9.576;2023-05-10T00:42:39;5.40;;;1.67;;
44169;SDS011;29836;52.286;9.576;2023-05-10T00:45:05;3.63;;;1.73;;
44169;SDS011;29836;52.286;9.576;2023-05-10T00:47:31;2.78;;;1.88;;
44169;SDS011;29836;52.286;9.576;2023-05-10T00:49:57;3.28;;;1.88;;
44169;SDS011;29836;52.286;9.576;2023-05-10T00:52:24;3.03;;;1.60;;
44169;SDS011;29836;52.286;9.576;2023-05-10T00:54:51;6.00;;;1.83;;
44169;SDS011;29836;52.286;9.576;2023-05-10T00:57:17;4.40;;;1.85;;
44169;SDS011;29836;52.286;9.576;2023-05-10T00:59:43;3.15;;;1.67;;
44169;SDS011;29836;52.286;9.576;2023-05-10T01:02:08;3.67;;;1.83;;
44169;SDS011;29836;52.286;9.576;2023-05-10T01:04:34;4.88;;;1.90;;
44169;SDS011;29836;52.286;9.576;2023-05-10T01:07:00;6.82;;;1.90;;
44169;SDS011;29836;52.286;9.576;2023-05-10T01:09:26;3.85;;;2.10;;
44169;SDS011;29836;52.286;9.576;2023-05-10T01:11:52;4.07;;;2.10;;
44169;SDS011;29836;52.286;9.576;2023-05-10T01:14:18;3.95;;;1.80;;
44169;SDS011;29836;52.286;9.576;2023-05-10T01:16:45;5.20;;;1.88;;
44169;SDS011;29836;52.286;9.576;2023-05-10T01:19:22;3.78;;;1.70;;
44169;SDS011;29836;52.286;9.576;2023-05-10T01:27:14;3.72;;;1.90;;
44169;SDS011;29836;52.286;9.576;2023-05-10T01:37:52;2.22;;;1.67;;
44169;SDS011;29836;52.286;9.576;2023-05-10T01:40:48;3.70;;;2.00;;
44169;SDS011;29836;52.286;9.576;2023-05-10T01:43:22;6.95;;;2.08;;
44169;SDS011;29836;52.286;9.576;2023-05-10T01:46:00;9.43;;;2.38;;
44169;SDS011;29836;52.286;9.576;2023-05-10T01:48:35;5.72;;;1.80;;
44169;SDS011;29836;52.286;9.576;2023-05-10T01:51:13;4.53;;;2.05;;
44169;SDS011;29836;52.286;9.576;2023-05-10T01:53:41;3.92;;;1.92;;
44169;SDS011;29836;52.286;9.576;2023-05-10T01:56:10;3.97;;;2.00;;
44169;SDS011;29836;52.286;9.576;2023-05-10T01:58:37;3.47;;;1.83;;
44169;SDS011;29836;52.286;9.576;2023-05-10T02:01:08;4.07;;;2.08;;
44169;SDS011;29836;52.286;9.576;2023-05-10T02:03:34;5.05;;;1.98;;
44169;SDS011;29836;52.286;9.576;2023-05-10T02:06:01;5.05;;;1.95;;
44169;SDS011;29836;52.286;9.576;2023-05-10T02:08:28;3.42;;;1.73;;
44169;SDS011;29836;52.286;9.576;2023-05-10T02:10:55;4.20;;;1.88;;
44169;SDS011;29836;52.286;9.576;2023-05-10T02:13:23;4.28;;;1.60;;
44169;SDS011;29836;52.286;9.576;2023-05-10T02:15:50;4.85;;;1.70;;
44169;SDS011;29836;52.286;9.576;2023-05-10T02:18:17;5.10;;;2.10;;
44169;SDS011;29836;52.286;9.576;2023-05-10T02:20:44;3.55;;;1.70;;
44169;SDS011;29836;52.286;9.576;2023-05-10T02:23:11;4.60;;;1.95;;
44169;SDS011;29836;52.286;9.576;2023-05-10T02:25:37;2.80;;;1.80;;
44169;SDS011;29836;52.286;9.576;2023-05-10T02:28:04;3.08;;;2.00;;
44169;SDS011;29836;52.286;9.576;2023-05-10T02:30:31;3.78;;;2.13;;
44169;SDS011;29836;52.286;9.576;2023-05-10T02:32:58;3.80;;;2.30;;
44169;SDS011;29836;52.286;9.576;2023-05-10T02:35:25;5.20;;;2.28;;
44169;SDS011;29836;52.286;9.576;2023-05-10T02:37:51;4.00;;;2.40;;
44169;SDS011;29836;52.286;9.576;2023-05-10T02:40:18;3.55;;;2.10;;
44169;SDS011;29836;52.286;9.576;2023-05-10T02:42:46;3.67;;;2.30;;
44169;SDS011;29836;52.286;9.576;2023-05-10T02:45:14;4.10;;;2.40;;
44169;SDS011;29836;52.286;9.576;2023-05-10T02:47:43;4.15;;;2.53;;
44169;SDS011;29836;52.286;9.576;2023-05-10T02:50:08;3.53;;;2.45;;
44169;SDS011;29836;52.286;9.576;2023-05-10T02:52:36;7.82;;;2.58;;
44169;SDS011;29836;52.286;9.576;2023-05-10T02:55:06;5.07;;;2.53;;
44169;SDS011;29836;52.286;9.576;2023-05-10T02:57:34;3.05;;;1.95;;
44169;SDS011;29836;52.286;9.576;2023-05-10T03:00:06;3.35;;;2.20;;
44169;SDS011;29836;52.286;9.576;2023-05-10T03:02:33;3.65;;;2.20;;
44169;SDS011;29836;52.286;9.576;2023-05-10T03:04:59;4.65;;;2.22;;
44169;SDS011;29836;52.286;9.576;2023-05-10T03:07:24;2.65;;;2.05;;
44169;SDS011;29836;52.286;9.576;2023-05-10T03:09:50;4.65;;;2.42;;
44169;SDS011;29836;52.286;9.576;2023-05-10T03:18:22;4.38;;;2.13;;
44169;SDS011;29836;52.286;9.576;2023-05-10T03:20:56;3.90;;;2.30;;
44169;SDS011;29836;52.286;9.576;2023-05-10T03:23:26;5.60;;;2.63;;
44169;SDS011;29836;52.286;9.576;2023-05-10T03:25:58;4.88;;;2.17;;
44169;SDS011;29836;52.286;9.576;2023-05-10T03:28:25;5.75;;;2.40;;
44169;SDS011;29836;52.286;9.576;2023-05-10T03:30:52;3.83;;;2.20;;
44169;SDS011;29836;52.286;9.576;2023-05-10T03:33:19;4.55;;;2.55;;
44169;SDS011;29836;52.286;9.576;2023-05-10T03:35:45;4.43;;;2.42;;
44169;SDS011;29836;52.286;9.576;2023-05-10T03:38:11;5.68;;;2.63;;
44169;SDS011;29836;52.286;9.576;2023-05-10T03:40:39;4.90;;;2.22;;
44169;SDS011;29836;52.286;9.576;2023-05-10T03:43:05;8.00;;;2.63;;
44169;SDS011;29836;52.286;9.576;2023-05-10T03:45:31;3.00;;;1.95;;
44169;SDS011;29836;52.286;9.576;2023-05-10T03:47:56;4.68;;;2.20;;
44169;SDS011;29836;52.286;9.576;2023-05-10T03:50:23;3.08;;;2.00;;
44169;SDS011;29836;52.286;9.576;2023-05-10T03:52:49;8.20;;;2.58;;
44169;SDS011;29836;52.286;9.576;2023-05-10T03:55:14;4.22;;;2.20;;
44169;SDS011;29836;52.286;9.576;2023-05-10T03:57:41;4.32;;;2.03;;
44169;SDS011;29836;52.286;9.576;2023-05-10T04:00:06;4.75;;;2.58;;
44169;SDS011;29836;52.286;9.576;2023-05-10T04:02:33;3.60;;;2.30;;
44169;SDS011;29836;52.286;9.576;2023-05-10T04:04:58;4.00;;;2.42;;
44169;SDS011;29836;52.286;9.576;2023-05-10T04:07:24;6.35;;;2.85;;
44169;SDS011;29836;52.286;9.576;2023-05-10T04:09:49;5.88;;;2.78;;
44169;SDS011;29836;52.286;9.576;2023-05-10T04:12:15;5.13;;;2.97;;
44169;SDS011;29836;52.286;9.576;2023-05-10T04:14:40;3.83;;;2.03;;
44169;SDS011;29836;52.286;9.576;2023-05-10T04:17:06;5.15;;;2.70;;
44169;SDS011;29836;52.286;9.576;2023-05-10T04:19:31;5.25;;;2.80;;
44169;SDS011;29836;52.286;9.576;2023-05-10T04:21:57;4.50;;;2.63;;
44169;SDS011;29836;52.286;9.576;2023-05-10T04:24:23;6.72;;;3.08;;
44169;SDS011;29836;52.286;9.576;2023-05-10T04:26:49;4.38;;;2.63;;
44169;SDS011;29836;52.286;9.576;2023-05-10T04:29:15;6.78;;;3.17;;
44169;SDS011;29836;52.286;9.576;2023-05-10T04:31:41;6.53;;;3.17;;
44169;SDS011;29836;52.286;9.576;2023-05-10T04:34:06;4.57;;;2.90;;
44169;SDS011;29836;52.286;9.576;2023-05-10T04:36:32;5.35;;;3.42;;
44169;SDS011;29836;52.286;9.576;2023-05-10T04:39:00;6.22;;;3.42;;
44169;SDS011;29836;52.286;9.576;2023-05-10T04:41:25;5.88;;;3.28;;
44169;SDS011;29836;52.286;9.576;2023-05-10T04:43:51;5.80;;;3.70;;
44169;SDS011;29836;52.286;9.576;2023-05-10T04:46:16;7.75;;;3.80;;
44169;SDS011;29836;52.286;9.576;2023-05-10T04:48:42;9.63;;;3.83;;
44169;SDS011;29836;52.286;9.576;2023-05-10T04:51:07;5.55;;;3.53;;
44169;SDS011;29836;52.286;9.576;2023-05-10T04:53:33;7.03;;;4.00;;
44169;SDS011;29836;52.286;9.576;2023-05-10T04:55:58;5.78;;;3.55;;
44169;SDS011;29836;52.286;9.576;2023-05-10T04:58:24;8.65;;;3.80;;
44169;SDS011;29836;52.286;9.576;2023-05-10T05:00:49;7.15;;;3.95;;
44169;SDS011;29836;52.286;9.576;2023-05-10T05:03:15;7.47;;;4.22;;
44169;SDS011;29836;52.286;9.576;2023-05-10T05:05:41;7.22;;;3.88;;
44169;SDS011;29836;52.286;9.576;2023-05-10T05:08:06;10.38;;;4.43;;
44169;SDS011;29836;52.286;9.576;2023-05-10T05:10:31;10.55;;;4.80;;
44169;SDS011;29836;52.286;9.576;2023-05-10T05:12:57;8.55;;;5.82;;
44169;SDS011;29836;52.286;9.576;2023-05-10T05:15:22;7.65;;;4.90;;
44169;SDS011;29836;52.286;9.576;2023-05-10T05:17:48;9.23;;;5.60;;
44169;SDS011;29836;52.286;9.576;2023-05-10T05:20:14;9.32;;;5.40;;
44169;SDS011;29836;52.286;9.576;2023-05-10T05:22:39;9.32;;;5.38;;
44169;SDS011;29836;52.286;9.576;2023-05-10T05:25:05;8.70;;;5.22;;
44169;SDS011;29836;52.286;9.576;2023-05-10T05:27:31;7.35;;;4.60;;
44169;SDS011;29836;52.286;9.576;2023-05-10T05:29:57;9.02;;;5.15;;
44169;SDS011;29836;52.286;9.576;2023-05-10T05:32:23;11.18;;;6.13;;
44169;SDS011;29836;52.286;9.576;2023-05-10T05:34:49;10.52;;;5.45;;
44169;SDS011;29836;52.286;9.576;2023-05-10T05:37:15;11.15;;;6.00;;
44169;SDS011;29836;52.286;9.576;2023-05-10T05:39:41;8.00;;;4.95;;
44169;SDS011;29836;52.286;9.576;2023-05-10T05:42:08;10.45;;;5.60;;
44169;SDS011;29836;52.286;9.576;2023-05-10T05:44:34;8.32;;;5.72;;
44169;SDS011;29836;52.286;9.576;2023-05-10T05:47:00;8.32;;;5.72;;
44169;SDS011;29836;52.286;9.576;2023-05-10T05:49:26;8.85;;;4.97;;
44169;SDS011;29836;52.286;9.576;2023-05-10T05:51:51;8.80;;;5.60;;
44169;SDS011;29836;52.286;9.576;2023-05-10T05:54:17;12.30;;;6.00;;
44169;SDS011;29836;52.286;9.576;2023-05-10T05:56:42;11.85;;;5.30;;
44169;SDS011;29836;52.286;9.576;2023-05-10T05:59:09;10.60;;;5.50;;
44169;SDS011;29836;52.286;9.576;2023-05-10T06:01:34;9.60;;;5.97;;
44169;SDS011;29836;52.286;9.576;2023-05-10T06:04:00;9.35;;;6.07;;
44169;SDS011;29836;52.286;9.576;2023-05-10T06:06:26;12.95;;;5.38;;
44169;SDS011;29836;52.286;9.576;2023-05-10T06:08:51;9.30;;;5.90;;
44169;SDS011;29836;52.286;9.576;2023-05-10T06:11:17;9.40;;;5.97;;
44169;SDS011;29836;52.286;9.576;2023-05-10T06:13:42;15.80;;;5.57;;
44169;SDS011;29836;52.286;9.576;2023-05-10T06:16:08;9.38;;;5.20;;
44169;SDS011;29836;52.286;9.576;2023-05-10T06:18:33;8.27;;;5.05;;
44169;SDS011;29836;52.286;9.576;2023-05-10T06:20:59;8.32;;;5.00;;
44169;SDS011;29836;52.286;9.576;2023-05-10T06:23:25;8.30;;;5.38;;
44169;SDS011;29836;52.286;9.576;2023-05-10T06:25:51;11.10;;;5.72;;
44169;SDS011;29836;52.286;9.576;2023-05-10T06:28:17;9.50;;;5.40;;
44169;SDS011;29836;52.286;9.576;2023-05-10T06:30:42;8.85;;;5.60;;
44169;SDS011;29836;52.286;9.576;2023-05-10T06:33:08;8.15;;;5.40;;
44169;SDS011;29836;52.286;9.576;2023-05-10T06:35:34;8.45;;;4.93;;
44169;SDS011;29836;52.286;9.576;2023-05-10T06:37:59;8.80;;;5.07;;
44169;SDS011;29836;52.286;9.576;2023-05-10T06:40:25;7.82;;;5.10;;
44169;SDS011;29836;52.286;9.576;2023-05-10T06:42:50;9.77;;;5.43;;
44169;SDS011;29836;52.286;9.576;2023-05-10T06:45:16;8.15;;;4.90;;
44169;SDS011;29836;52.286;9.576;2023-05-10T06:47:42;8.38;;;5.45;;
44169;SDS011;29836;52.286;9.576;2023-05-10T06:50:08;11.00;;;6.22;;
44169;SDS011;29836;52.286;9.576;2023-05-10T06:52:34;7.32;;;5.18;;
44169;SDS011;29836;52.286;9.576;2023-05-10T06:55:00;11.02;;;5.68;;
44169;SDS011;29836;52.286;9.576;2023-05-10T06:57:26;8.63;;;5.53;;
44169;SDS011;29836;52.286;9.576;2023-05-10T06:59:52;11.05;;;6.25;;
44169;SDS011;29836;52.286;9.576;2023-05-10T07:02:17;9.13;;;5.28;;
44169;SDS011;29836;52.286;9.576;2023-05-10T07:04:43;12.40;;;7.07;;
44169;SDS011;29836;52.286;9.576;2023-05-10T07:07:08;7.97;;;5.93;;
44169;SDS011;29836;52.286;9.576;2023-05-10T07:09:34;9.10;;;5.70;;
44169;SDS011;29836;52.286;9.576;2023-05-10T07:12:00;8.73;;;5.78;;
44169;SDS011;29836;52.286;9.576;2023-05-10T07:14:26;9.75;;;5.38;;
44169;SDS011;29836;52.286;9.576;2023-05-10T07:16:52;9.40;;;5.18;;
44169;SDS011;29836;52.286;9.576;2023-05-10T07:19:17;9.38;;;5.30;;
44169;SDS011;29836;52.286;9.576;2023-05-10T07:21:43;6.63;;;4.55;;
44169;SDS011;29836;52.286;9.576;2023-05-10T07:24:09;8.48;;;4.90;;
44169;SDS011;29836;52.286;9.576;2023-05-10T07:26:34;10.75;;;3.15;;
44169;SDS011;29836;52.286;9.576;2023-05-10T07:29:00;4.95;;;2.20;;
44169;SDS011;29836;52.286;9.576;2023-05-10T07:31:26;3.33;;;1.88;;
44169;SDS011;29836;52.286;9.576;2023-05-10T07:33:51;2.90;;;1.33;;
44169;SDS011;29836;52.286;9.576;2023-05-10T07:36:17;1.70;;;1.20;;
44169;SDS011;29836;52.286;9.576;2023-05-10T07:38:42;2.20;;;1.23;;
44169;SDS011;29836;52.286;9.576;2023-05-10T07:41:07;1.70;;;1.05;;
44169;SDS011;29836;52.286;9.576;2023-05-10T07:43:33;1.27;;;0.95;;
44169;SDS011;29836;52.286;9.576;2023-05-10T07:45:58;2.78;;;1.27;;
44169;SDS011;29836;52.286;9.576;2023-05-10T07:48:24;1.35;;;1.00;;
44169;SDS011;29836;52.286;9.576;2023-05-10T07:50:50;2.28;;;0.95;;
44169;SDS011;29836;52.286;9.576;2023-05-10T07:53:16;1.23;;;0.90;;
44169;SDS011;29836;52.286;9.576;2023-05-10T07:55:43;1.02;;;0.77;;
44169;SDS011;29836;52.286;9.576;2023-05-10T07:58:09;1.02;;;0.80;;
44169;SDS011;29836;52.286;9.576;2023-05-10T08:00:34;1.55;;;0.80;;
44169;SDS011;29836;52.286;9.576;2023-05-10T08:03:00;0.88;;;0.70;;
44169;SDS011;29836;52.286;9.576;2023-05-10T08:05:25;0.82;;;0.73;;
44169;SDS011;29836;52.286;9.576;2023-05-10T08:07:51;0.95;;;0.68;;
44169;SDS011;29836;52.286;9.576;2023-05-10T08:10:16;0.60;;;0.60;;
44169;SDS011;29836;52.286;9.576;2023-05-10T08:12:42;0.68;;;0.60;;
44169;SDS011;29836;52.286;9.576;2023-05-10T08:15:07;0.60;;;0.52;;
44169;SDS011;29836;52.286;9.576;2023-05-10T08:17:33;1.20;;;0.50;;
44169;SDS011;29836;52.286;9.576;2023-05-10T08:19:59;0.68;;;0.68;;
44169;SDS011;29836;52.286;9.576;2023-05-10T08:22:25;0.68;;;0.68;;
44169;SDS011;29836;52.286;9.576;2023-05-10T08:24:50;0.77;;;0.70;;
44169;SDS011;29836;52.286;9.576;2023-05-10T08:27:16;0.70;;;0.70;;
44169;SDS011;29836;52.286;9.576;2023-05-10T08:29:41;0.60;;;0.60;;
44169;SDS011;29836;52.286;9.576;2023-05-10T08:32:07;0.80;;;0.73;;
44169;SDS011;29836;52.286;9.576;2023-05-10T08:34:32;1.15;;;0.70;;
44169;SDS011;29836;52.286;9.576;2023-05-10T08:36:58;0.70;;;0.60;;
44169;SDS011;29836;52.286;9.576;2023-05-10T08:39:23;1.42;;;0.90;;
44169;SDS011;29836;52.286;9.576;2023-05-10T08:41:49;0.95;;;0.70;;
44169;SDS011;29836;52.286;9.576;2023-05-10T08:44:16;1.48;;;1.00;;
44169;SDS011;29836;52.286;9.576;2023-05-10T08:46:43;2.22;;;0.63;;
44169;SDS011;29836;52.286;9.576;2023-05-10T08:49:13;0.85;;;0.80;;
44169;SDS011;29836;52.286;9.576;2023-05-10T08:51:43;1.00;;;0.70;;
44169;SDS011;29836;52.286;9.576;2023-05-10T08:54:14;2.78;;;0.90;;
44169;SDS011;29836;52.286;9.576;2023-05-10T08:56:40;1.08;;;0.80;;
44169;SDS011;29836;52.286;9.576;2023-05-10T08:59:06;2.65;;;0.80;;
44169;SDS011;29836;52.286;9.576;2023-05-10T09:01:31;2.67;;;0.90;;
44169;SDS011;29836;52.286;9.576;2023-05-10T09:04:00;0.90;;;0.77;;
44169;SDS011;29836;52.286;9.576;2023-05-10T09:06:25;1.10;;;0.88;;
44169;SDS011;29836;52.286;9.576;2023-05-10T09:08:51;3.28;;;0.98;;
44169;SDS011;29836;52.286;9.576;2023-05-10T09:11:17;1.30;;;0.90;;
44169;SDS011;29836;52.286;9.576;2023-05-10T09:13:45;1.88;;;0.82;;
44169;SDS011;29836;52.286;9.576;2023-05-10T09:16:12;1.08;;;0.82;;
44169;SDS011;29836;52.286;9.576;2023-05-10T09:18:39;4.15;;;1.00;;
44169;SDS011;29836;52.286;9.576;2023-05-10T09:21:04;3.25;;;0.90;;
44169;SDS011;29836;52.286;9.576;2023-05-10T09:23:30;1.85;;;1.25;;
44169;SDS011;29836;52.286;9.576;2023-05-10T09:26:03;3.08;;;1.45;;
44169;SDS011;29836;52.286;9.576;2023-05-10T09:31:15;6.30;;;1.73;;
44169;SDS011;29836;52.286;9.576;2023-05-10T09:33:44;12.25;;;1.42;;
44169;SDS011;29836;52.286;9.576;2023-05-10T09:36:10;2.47;;;1.30;;
44169;SDS011;29836;52.286;9.576;2023-05-10T09:38:46;3.17;;;1.23;;
44169;SDS011;29836;52.286;9.576;2023-05-10T09:41:20;1.77;;;1.05;;
44169;SDS011;29836;52.286;9.576;2023-05-10T09:43:47;1.67;;;1.20;;
44169;SDS011;29836;52.286;9.576;2023-05-10T09:46:14;2.42;;;1.05;;
44169;SDS011;29836;52.286;9.576;2023-05-10T09:48:44;2.10;;;1.17;;
44169;SDS011;29836;52.286;9.576;2023-05-10T09:51:18;3.55;;;1.25;;
44169;SDS011;29836;52.286;9.576;2023-05-10T09:53:45;1.88;;;1.08;;
44169;SDS011;29836;52.286;9.576;2023-05-10T09:56:10;3.90;;;1.20;;
44169;SDS011;29836;52.286;9.576;2023-05-10T09:58:36;2.33;;;1.23;;
44169;SDS011;29836;52.286;9.576;2023-05-10T10:01:05;2.15;;;1.33;;
44169;SDS011;29836;52.286;9.576;2023-05-10T10:03:40;2.70;;;1.52;;
44169;SDS011;29836;52.286;9.576;2023-05-10T10:06:07;3.20;;;1.50;;
44169;SDS011;29836;52.286;9.576;2023-05-10T10:08:33;3.13;;;1.55;;
44169;SDS011;29836;52.286;9.576;2023-05-10T10:10:59;3.38;;;1.30;;
44169;SDS011;29836;52.286;9.576;2023-05-10T10:13:25;3.30;;;1.40;;
44169;SDS011;29836;52.286;9.576;2023-05-10T10:15:51;3.90;;;1.77;;
44169;SDS011;29836;52.286;9.576;2023-05-10T10:18:18;3.38;;;1.83;;
44169;SDS011;29836;52.286;9.576;2023-05-10T10:20:48;3.50;;;1.85;;
44169;SDS011;29836;52.286;9.576;2023-05-10T10:23:14;4.70;;;1.70;;
44169;SDS011;29836;52.286;9.576;2023-05-10T10:25:40;6.15;;;2.28;;
44169;SDS011;29836;52.286;9.576;2023-05-10T10:30:43;3.83;;;2.17;;
44169;SDS011;29836;52.286;9.576;2023-05-10T10:36:00;4.85;;;2.47;;
44169;SDS011;29836;52.286;9.576;2023-05-10T10:38:39;10.65;;;2.67;;
44169;SDS011;29836;52.286;9.576;2023-05-10T10:41:34;6.10;;;2.20;;
44169;SDS011;29836;52.286;9.576;2023-05-10T10:52:39;4.95;;;2.20;;
44169;SDS011;29836;52.286;9.576;2023-05-10T10:55:06;7.88;;;2.67;;
44169;SDS011;29836;52.286;9.576;2023-05-10T10:57:45;14.20;;;3.17;;
44169;SDS011;29836;52.286;9.576;2023-05-10T11:13:43;4.65;;;3.00;;
44169;SDS011;29836;52.286;9.576;2023-05-10T11:16:14;4.82;;;2.92;;
44169;SDS011;29836;52.286;9.576;2023-05-10T11:18:51;4.07;;;2.63;;
44169;SDS011;29836;52.286;9.576;2023-05-10T11:21:18;6.78;;;2.90;;
44169;SDS011;29836;52.286;9.576;2023-05-10T11:23:53;7.82;;;2.90;;
44169;SDS011;29836;52.286;9.576;2023-05-10T11:26:23;7.15;;;2.92;;
44169;SDS011;29836;52.286;9.576;2023-05-10T11:29:00;3.40;;;2.10;;
44169;SDS011;29836;52.286;9.576;2023-05-10T11:31:27;5.60;;;3.00;;
44169;SDS011;29836;52.286;9.576;2023-05-10T11:33:54;4.22;;;2.60;;
44169;SDS011;29836;52.286;9.576;2023-05-10T11:36:26;6.70;;;3.20;;
44169;SDS011;29836;52.286;9.576;2023-05-10T11:38:54;4.63;;;2.72;;
44169;SDS011;29836;52.286;9.576;2023-05-10T11:41:21;5.93;;;2.53;;
44169;SDS011;29836;52.286;9.576;2023-05-10T11:43:49;6.22;;;3.00;;
44169;SDS011;29836;52.286;9.576;2023-05-10T11:46:16;6.32;;;3.17;;
44169;SDS011;29836;52.286;9.576;2023-05-10T11:48:45;6.32;;;2.53;;
44169;SDS011;29836;52.286;9.576;2023-05-10T11:51:12;5.03;;;2.80;;
44169;SDS011;29836;52.286;9.576;2023-05-10T11:53:37;5.18;;;2.40;;
44169;SDS011;29836;52.286;9.576;2023-05-10T11:56:03;5.68;;;2.45;;
44169;SDS011;29836;52.286;9.576;2023-05-10T11:58:32;4.45;;;2.35;;
44169;SDS011;29836;52.286;9.576;2023-05-10T12:00:59;4.50;;;2.55;;
44169;SDS011;29836;52.286;9.576;2023-05-10T12:03:25;6.07;;;2.50;;
44169;SDS011;29836;52.286;9.576;2023-05-10T12:05:51;3.63;;;2.53;;
44169;SDS011;29836;52.286;9.576;2023-05-10T12:08:20;6.35;;;2.38;;
44169;SDS011;29836;52.286;9.576;2023-05-10T12:10:47;4.85;;;2.38;;
44169;SDS011;29836;52.286;9.576;2023-05-10T12:13:13;5.38;;;2.33;;
44169;SDS011;29836;52.286;9.576;2023-05-10T12:15:40;4.07;;;2.30;;
44169;SDS011;29836;52.286;9.576;2023-05-10T12:18:07;5.10;;;2.42;;
44169;SDS011;29836;52.286;9.576;2023-05-10T12:20:37;3.72;;;2.35;;
44169;SDS011;29836;52.286;9.576;2023-05-10T12:23:03;4.80;;;2.00;;
44169;SDS011;29836;52.286;9.576;2023-05-10T12:25:35;6.82;;;2.08;;
44169;SDS011;29836;52.286;9.576;2023-05-10T12:28:03;5.15;;;2.17;;
44169;SDS011;29836;52.286;9.576;2023-05-10T12:30:30;3.30;;;1.77;;
44169;SDS011;29836;52.286;9.576;2023-05-10T12:33:01;4.88;;;2.47;;
44169;SDS011;29836;52.286;9.576;2023-05-10T12:35:51;4.32;;;2.20;;
44169;SDS011;29836;52.286;9.576;2023-05-10T12:38:51;4.45;;;2.25;;
44169;SDS011;29836;52.286;9.576;2023-05-10T12:41:14;4.90;;;2.63;;
44169;SDS011;29836;52.286;9.576;2023-05-10T12:43:40;5.07;;;2.72;;
44169;SDS011;29836;52.286;9.576;2023-05-10T12:46:13;6.57;;;2.88;;
44169;SDS011;29836;52.286;9.576;2023-05-10T12:48:40;7.22;;;2.88;;
44169;SDS011;29836;52.286;9.576;2023-05-10T12:51:07;6.75;;;3.45;;
44169;SDS011;29836;52.286;9.576;2023-05-10T12:53:40;4.40;;;3.13;;
44169;SDS011;29836;52.286;9.576;2023-05-10T12:56:06;4.68;;;2.92;;
44169;SDS011;29836;52.286;9.576;2023-05-10T12:58:31;6.78;;;2.88;;
44169;SDS011;29836;52.286;9.576;2023-05-10T13:00:57;7.60;;;3.10;;
44169;SDS011;29836;52.286;9.576;2023-05-10T13:03:24;4.50;;;2.70;;
44169;SDS011;29836;52.286;9.576;2023-05-10T13:05:49;4.10;;;2.13;;
44169;SDS011;29836;52.286;9.576;2023-05-10T13:08:15;3.92;;;2.17;;
44169;SDS011;29836;52.286;9.576;2023-05-10T13:10:40;4.20;;;2.40;;
44169;SDS011;29836;52.286;9.576;2023-05-10T13:13:06;4.05;;;2.25;;
44169;SDS011;29836;52.286;9.576;2023-05-10T13:15:32;4.22;;;2.42;;
44169;SDS011;29836;52.286;9.576;2023-05-10T13:17:58;3.42;;;2.38;;
44169;SDS011;29836;52.286;9.576;2023-05-10T13:20:23;5.18;;;2.13;;
44169;SDS011;29836;52.286;9.576;2023-05-10T13:22:49;5.03;;;2.35;;
44169;SDS011;29836;52.286;9.576;2023-05-10T13:25:15;3.65;;;2.35;;
44169;SDS011;29836;52.286;9.576;2023-05-10T13:27:40;4.10;;;2.08;;
44169;SDS011;29836;52.286;9.576;2023-05-10T13:30:06;6.30;;;2.80;;
44169;SDS011;29836;52.286;9.576;2023-05-10T13:32:33;4.55;;;2.30;;
44169;SDS011;29836;52.286;9.576;2023-05-10T13:34:58;3.92;;;2.60;;
44169;SDS011;29836;52.286;9.576;2023-05-10T13:37:24;4.18;;;2.42;;
44169;SDS011;29836;52.286;9.576;2023-05-10T13:39:49;5.25;;;2.72;;
44169;SDS011;29836;52.286;9.576;2023-05-10T13:42:15;6.18;;;2.75;;
44169;SDS011;29836;52.286;9.576;2023-05-10T13:44:40;3.45;;;2.10;;
44169;SDS011;29836;52.286;9.576;2023-05-10T13:47:06;4.10;;;2.35;;
44169;SDS011;29836;52.286;9.576;2023-05-10T13:49:32;5.93;;;2.40;;
44169;SDS011;29836;52.286;9.576;2023-05-10T13:51:58;5.68;;;2.50;;
44169;SDS011;29836;52.286;9.576;2023-05-10T13:54:25;8.23;;;2.83;;
44169;SDS011;29836;52.286;9.576;2023-05-10T13:56:54;8.05;;;3.13;;
44169;SDS011;29836;52.286;9.576;2023-05-10T13:59:19;5.30;;;2.75;;
44169;SDS011;29836;52.286;9.576;2023-05-10T14:01:45;5.03;;;2.63;;
44169;SDS011;29836;52.286;9.576;2023-05-10T14:04:10;6.03;;;3.17;;
44169;SDS011;29836;52.286;9.576;2023-05-10T14:06:36;4.65;;;2.83;;
44169;SDS011;29836;52.286;9.576;2023-05-10T14:09:02;4.85;;;2.53;;
44169;SDS011;29836;52.286;9.576;2023-05-10T14:11:28;4.75;;;3.35;;
44169;SDS011;29836;52.286;9.576;2023-05-10T14:13:53;5.35;;;3.08;;
44169;SDS011;29836;52.286;9.576;2023-05-10T14:16:19;6.30;;;2.80;;
44169;SDS011;29836;52.286;9.576;2023-05-10T14:18:45;4.82;;;2.38;;
44169;SDS011;29836;52.286;9.576;2023-05-10T14:21:10;3.55;;;2.50;;
44169;SDS011;29836;52.286;9.576;2023-05-10T14:23:36;5.68;;;2.45;;
44169;SDS011;29836;52.286;9.576;2023-05-10T14:26:01;5.68;;;3.63;;
44169;SDS011;29836;52.286;9.576;2023-05-10T14:28:27;8.35;;;3.90;;
44169;SDS011;29836;52.286;9.576;2023-05-10T14:30:53;6.57;;;4.53;;
44169;SDS011;29836;52.286;9.576;2023-05-10T14:33:18;7.78;;;4.85;;
44169;SDS011;29836;52.286;9.576;2023-05-10T14:35:45;10.25;;;5.47;;
44169;SDS011;29836;52.286;9.576;2023-05-10T14:38:11;8.07;;;4.40;;
44169;SDS011;29836;52.286;9.576;2023-05-10T14:40:37;9.50;;;5.15;;
44169;SDS011;29836;52.286;9.576;2023-05-10T14:43:03;10.45;;;5.28;;
44169;SDS011;29836;52.286;9.576;2023-05-10T14:45:28;8.77;;;5.03;;
44169;SDS011;29836;52.286;9.576;2023-05-10T14:47:54;12.60;;;4.85;;
44169;SDS011;29836;52.286;9.576;2023-05-10T14:50:19;7.88;;;4.75;;
44169;SDS011;29836;52.286;9.576;2023-05-10T14:52:45;9.05;;;4.70;;
44169;SDS011;29836;52.286;9.576;2023-05-10T14:55:12;8.98;;;5.13;;
44169;SDS011;29836;52.286;9.576;2023-05-10T14:57:37;8.88;;;4.97;;
44169;SDS011;29836;52.286;9.576;2023-05-10T15:00:03;10.57;;;5.25;;
44169;SDS011;29836;52.286;9.576;2023-05-10T15:02:32;12.35;;;5.45;;
44169;SDS011;29836;52.286;9.576;2023-05-10T15:04:58;8.13;;;4.90;;
44169;SDS011;29836;52.286;9.576;2023-05-10T15:07:24;12.38;;;6.15;;
44169;SDS011;29836;52.286;9.576;2023-05-10T15:09:50;14.55;;;7.55;;
44169;SDS011;29836;52.286;9.576;2023-05-10T15:12:17;17.90;;;8.82;;
44169;SDS011;29836;52.286;9.576;2023-05-10T15:14:43;21.63;;;10.13;;
44169;SDS011;29836;52.286;9.576;2023-05-10T15:17:09;19.83;;;9.40;;
44169;SDS011;29836;52.286;9.576;2023-05-10T15:19:35;19.73;;;9.57;;
44169;SDS011;29836;52.286;9.576;2023-05-10T15:22:01;19.92;;;10.00;;
44169;SDS011;29836;52.286;9.576;2023-05-10T15:24:27;20.75;;;9.35;;
44169;SDS011;29836;52.286;9.576;2023-05-10T15:26:53;19.30;;;9.63;;
44169;SDS011;29836;52.286;9.576;2023-05-10T15:29:19;20.02;;;9.45;;
44169;SDS011;29836;52.286;9.576;2023-05-10T15:31:48;20.23;;;11.60;;
44169;SDS011;29836;52.286;9.576;2023-05-10T15:34:14;21.98;;;10.65;;